Погода Ранчо-Кукамонгана неделю

Калифорния, США

01 - 07 сентября
  • 01сентября
    Сегодня
    +17°
    +31°
    Ясно и безоблачно
    ВремяПогодаТемператураВлажностьДавлениеВетер, м/сВероятность осадков
    02:00Ясно и безоблачно+19°C68 %729 мм2.0 м/с2 %
    05:00Ясно и безоблачно+17°C74 %729 мм0.7 м/с2 %
    08:00Ясно и безоблачно+17°C71 %729 мм1.1 м/с2 %
    11:00Ясно и безоблачно+24°C42 %730 мм1.5 м/с2 %
    14:00Ясно и безоблачно+30°C23 %730 мм5.6 м/с2 %
    17:00Ясно и безоблачно+29°C27 %729 мм6.5 м/с2 %
    20:00Ясно и безоблачно+23°C40 %729 мм5.3 м/с2 %
    23:00Ясно и безоблачно+20°C57 %730 мм3.5 м/с2 %
  • 02сентября
    Среда
    +17°
    +31°
    Ясно и безоблачно
    ВремяПогодаТемператураВлажностьДавлениеВетер, м/сВероятность осадков
    02:00Ясно и безоблачно+18°C67 %730 мм1.3 м/с2 %
    05:00Ясно и безоблачно+18°C66 %729 мм0.7 м/с2 %
    08:00Ясно и безоблачно+19°C62 %730 мм0.8 м/с2 %
    11:00Ясно и безоблачно+25°C41 %731 мм1.2 м/с2 %
    14:00Ясно и безоблачно+30°C25 %730 мм4.5 м/с2 %
    17:00Ясно и безоблачно+30°C25 %729 мм6.2 м/с2 %
    20:00Ясно и безоблачно+23°C41 %729 мм5.5 м/с2 %
    23:00Ясно и безоблачно+21°C56 %730 мм2.6 м/с2 %
  • 03сентября
    Четверг
    +17°
    +30°
    Ясно и безоблачно
    ВремяПогодаТемператураВлажностьДавлениеВетер, м/сВероятность осадков
    02:00Ясно и безоблачно+19°C64 %729 мм1.2 м/с2 %
    05:00Ясно и безоблачно+18°C66 %728 мм0.5 м/с2 %
    08:00Ясно и безоблачно+20°C61 %729 мм0.9 м/с2 %
    11:00Ясно и безоблачно+24°C41 %729 мм1.0 м/с2 %
    14:00Ясно и безоблачно+30°C29 %728 мм4.1 м/с2 %
    17:00Ясно и безоблачно+29°C36 %727 мм6.3 м/с2 %
    20:00Ясно и безоблачно+23°C62 %727 мм5.5 м/с2 %
    23:00Ясно и безоблачно+20°C72 %728 мм2.7 м/с2 %
  • 04сентября
    Пятница
    +18°
    +31°
    Ясно и безоблачно
    ВремяПогодаТемператураВлажностьДавлениеВетер, м/сВероятность осадков
    02:00Ясно и безоблачно+19°C76 %728 мм1.2 м/с2 %
    05:00Ясно и безоблачно+18°C80 %728 мм0.5 м/с2 %
    08:00Ясно и безоблачно+19°C76 %728 мм0.8 м/с2 %
    11:00Ясно и безоблачно+25°C44 %729 мм0.6 м/с2 %
    14:00Ясно и безоблачно+30°C27 %728 мм4.1 м/с2 %
    17:00Ясно и безоблачно+29°C32 %727 мм5.8 м/с2 %
    20:00Ясно и безоблачно+23°C44 %728 мм5.2 м/с2 %
    23:00Ясно и безоблачно+21°C65 %729 мм2.5 м/с2 %
  • 05сентября
    Суббота
    +21°
    +33°
    Ясно и безоблачно
    ВремяПогодаТемператураВлажностьДавлениеВетер, м/сВероятность осадков
    02:00Ясно и безоблачно+20°C67 %728 мм0.8 м/с4 %
    05:00Ясно и безоблачно+19°C65 %728 мм0.0 м/с8 %
    08:00Ясно и безоблачно+21°C50 %729 мм0.6 м/с12 %
    11:00Практически безоблачно+28°C24 %730 мм1.1 м/с16 %
    14:00Ясно и безоблачно+32°C16 %729 мм3.6 м/с25 %
    17:00Ясно и безоблачно+31°C21 %728 мм5.4 м/с28 %
    20:00Ясно и безоблачно+26°C29 %728 мм5.6 м/с22 %
    23:00Практически безоблачно+23°C50 %729 мм2.1 м/с26 %
  • 06сентября
    Воскресенье
    +20°
    +33°
    Ясно и безоблачно
    ВремяПогодаТемператураВлажностьДавлениеВетер, м/сВероятность осадков
    05:00Небольшая облачность+22°C70 %728 мм0.5 м/с29 %
    11:00Ясно и безоблачно+27°C46 %729 мм0.9 м/с30 %
    17:00Ясно и безоблачно+32°C56 %728 мм3.8 м/с39 %
    23:00Ясно и безоблачно+23°C51 %728 мм1.2 м/с29 %
  • 07сентября
    Понедельник
    +18°
    +32°
    Ясно и безоблачно
    ВремяПогодаТемператураВлажностьДавлениеВетер, м/сВероятность осадков
    05:00Ясно и безоблачно+20°C59 %728 мм1.2 м/с20 %
    11:00Ясно и безоблачно+27°C29 %729 мм2.5 м/с23 %
    17:00Ясно и безоблачно+29°C26 %727 мм3.8 м/с33 %
    23:00Ясно и безоблачно+22°C54 %728 мм1.2 м/с22 %
Мы используем cookies
Соглашаюсь